createdAt,value
2019-04-05T00:00:12.002Z,6.40
2019-04-05T00:02:40.845Z,6.36
2019-04-05T00:05:09.802Z,6.37
2019-04-05T00:07:38.728Z,6.36
2019-04-05T00:10:07.679Z,6.39
2019-04-05T00:12:36.632Z,6.40
2019-04-05T00:15:15.053Z,6.42
2019-04-05T00:17:34.832Z,6.44
2019-04-05T00:20:04.084Z,6.47
2019-04-05T00:22:33.007Z,6.44
2019-04-05T00:25:01.953Z,6.50
2019-04-05T00:27:30.911Z,6.47
2019-04-05T00:29:59.836Z,6.43
2019-04-05T00:32:28.764Z,6.42
2019-04-05T00:34:57.668Z,6.37
2019-04-05T00:37:26.600Z,6.33
2019-04-05T00:39:55.505Z,6.38
2019-04-05T00:42:24.441Z,6.33
2019-04-05T00:44:53.356Z,6.70
2019-04-05T00:47:22.266Z,6.45
2019-04-05T00:49:51.232Z,6.40
2019-04-05T00:52:20.112Z,6.31
2019-04-05T00:54:49.028Z,6.29
2019-04-05T00:57:17.959Z,6.28
2019-04-05T00:59:46.866Z,6.23
2019-04-05T01:02:15.801Z,6.22
2019-04-05T01:04:44.739Z,6.16
2019-04-05T01:07:13.664Z,6.15
2019-04-05T01:09:42.601Z,6.53
2019-04-05T01:12:12.042Z,6.25
2019-04-05T01:14:41.267Z,6.22
2019-04-05T01:17:10.201Z,6.25
2019-04-05T01:19:39.119Z,6.29
2019-04-05T01:22:08.056Z,6.23
2019-04-05T01:24:36.988Z,6.22
2019-04-05T01:27:06.469Z,6.21
2019-04-05T01:29:35.402Z,6.58
2019-04-05T01:32:04.352Z,6.32
2019-04-05T01:34:33.295Z,6.23
2019-04-05T01:37:02.217Z,6.17
2019-04-05T01:39:31.149Z,6.15
2019-04-05T01:42:00.120Z,6.11
2019-04-05T01:44:29.094Z,6.07
2019-04-05T01:46:58.011Z,6.02
2019-04-05T01:49:26.917Z,6.01
2019-04-05T01:51:55.867Z,6.02
2019-04-05T01:54:24.795Z,6.00
2019-04-05T01:56:53.717Z,5.95
2019-04-05T01:59:22.624Z,5.88
2019-04-05T02:01:51.542Z,5.89
2019-04-05T02:04:20.481Z,5.91
2019-04-05T02:06:49.414Z,5.89
2019-04-05T02:09:18.332Z,5.92
2019-04-05T02:11:47.294Z,5.91
2019-04-05T02:14:16.205Z,5.91
2019-04-05T02:16:45.115Z,5.92
2019-04-05T02:19:14.048Z,6.01
2019-04-05T02:21:42.984Z,5.99
2019-04-05T02:24:11.902Z,5.97
2019-04-05T02:26:40.831Z,5.90
2019-04-05T02:29:09.739Z,5.90
2019-04-05T02:31:38.721Z,5.89
2019-04-05T02:34:07.669Z,5.87
2019-04-05T02:36:36.670Z,5.85
2019-04-05T02:39:07.157Z,6.27
2019-04-05T02:41:36.068Z,6.00
2019-04-05T02:44:05.088Z,5.98
2019-04-05T02:46:34.017Z,5.94
2019-04-05T02:49:02.968Z,6.26
2019-04-05T02:51:31.860Z,6.00
2019-04-05T02:54:00.765Z,5.94
2019-04-05T02:56:29.834Z,6.34
2019-04-05T02:58:58.813Z,6.07
2019-04-05T03:01:27.694Z,6.04
2019-04-05T03:03:56.605Z,6.07
2019-04-05T03:06:25.501Z,6.02
2019-04-05T03:08:54.414Z,5.98
2019-04-05T03:11:23.394Z,5.96
2019-04-05T03:13:52.474Z,5.86
2019-04-05T03:16:40.265Z,5.70
2019-04-05T03:19:05.651Z,5.57
2019-04-05T03:21:34.623Z,5.44
2019-04-05T03:24:03.522Z,5.40
2019-04-05T03:26:32.906Z,5.35
2019-04-05T03:29:01.793Z,5.25
2019-04-05T03:31:30.680Z,5.28
2019-04-05T03:33:59.570Z,5.26
2019-04-05T03:36:28.503Z,5.14
2019-04-05T03:38:57.404Z,5.06
2019-04-05T03:41:26.274Z,4.90
2019-04-05T03:43:55.186Z,4.79
2019-04-05T03:46:24.063Z,4.76
2019-04-05T03:48:52.970Z,4.71
2019-04-05T03:51:21.865Z,4.65
2019-04-05T03:53:50.805Z,4.63
2019-04-05T03:56:19.707Z,4.55
2019-04-05T03:58:48.587Z,4.88
2019-04-05T04:01:17.501Z,4.56
2019-04-05T04:03:46.421Z,4.51
2019-04-05T04:06:15.456Z,4.47
2019-04-05T04:08:44.293Z,4.34
2019-04-05T04:11:13.182Z,4.31
2019-04-05T04:13:42.091Z,4.26
2019-04-05T04:16:10.983Z,4.26
2019-04-05T04:18:39.890Z,4.35
2019-04-05T04:21:19.088Z,4.27
2019-04-05T04:23:47.967Z,4.21
2019-04-05T04:26:16.870Z,4.20
2019-04-05T04:28:45.779Z,4.16
2019-04-05T04:31:15.013Z,4.17
2019-04-05T04:33:43.904Z,4.11
2019-04-05T04:36:13.320Z,4.07
2019-04-05T04:38:41.690Z,4.05
2019-04-05T04:41:10.602Z,4.06
2019-04-05T04:43:39.484Z,4.15
2019-04-05T04:46:08.450Z,4.15
2019-04-05T04:48:37.334Z,4.50
2019-04-05T04:51:06.276Z,4.26
2019-04-05T04:53:35.166Z,4.18
2019-04-05T04:56:04.140Z,4.12
2019-04-05T04:58:33.046Z,4.11
2019-04-05T05:01:01.948Z,4.14
2019-04-05T05:03:30.867Z,4.09
2019-04-05T05:05:59.759Z,4.07
2019-04-05T05:08:28.660Z,3.99
2019-04-05T05:10:57.539Z,4.06
2019-04-05T05:13:26.452Z,3.98
2019-04-05T05:15:55.320Z,3.90
2019-04-05T05:18:24.240Z,3.87
2019-04-05T05:20:53.125Z,3.82
2019-04-05T05:23:22.042Z,3.84
2019-04-05T05:25:50.962Z,3.83
2019-04-05T05:28:19.845Z,3.80
2019-04-05T05:30:48.743Z,3.78
2019-04-05T05:33:17.649Z,3.77
2019-04-05T05:35:46.556Z,3.77
2019-04-05T05:38:15.453Z,3.72
2019-04-05T05:40:44.390Z,3.73
2019-04-05T05:43:13.274Z,3.73
2019-04-05T05:45:42.148Z,3.78
2019-04-05T05:48:11.049Z,3.74
2019-04-05T05:50:39.951Z,4.13
2019-04-05T05:53:08.857Z,3.88
2019-04-05T05:55:37.780Z,3.88
2019-04-05T05:58:06.842Z,3.88
2019-04-05T06:00:35.817Z,3.93
2019-04-05T06:03:06.257Z,4.10
2019-04-05T06:05:33.649Z,4.37
2019-04-05T06:08:02.537Z,4.89
2019-04-05T06:10:31.478Z,6.16
2019-04-05T06:13:00.400Z,7.22
2019-04-05T06:15:29.287Z,8.13
2019-04-05T06:18:04.486Z,9.11
2019-04-05T06:20:27.135Z,10.07
2019-04-05T06:22:56.053Z,10.68
2019-04-05T06:25:24.969Z,10.97
2019-04-05T06:27:53.861Z,10.57
2019-04-05T06:30:22.774Z,10.40
2019-04-05T06:32:51.713Z,10.18
2019-04-05T06:35:20.653Z,9.88
2019-04-05T06:37:49.553Z,9.73
2019-04-05T06:40:18.481Z,9.62
2019-04-05T06:42:47.417Z,9.72
2019-04-05T06:45:16.338Z,10.80
2019-04-05T06:47:45.261Z,12.15
2019-04-05T06:50:14.165Z,13.42
2019-04-05T06:52:43.084Z,14.45
2019-04-05T06:55:12.964Z,15.23
2019-04-05T06:57:41.891Z,15.40
2019-04-05T07:00:10.873Z,14.84
2019-04-05T07:02:39.770Z,14.52
2019-04-05T07:05:08.741Z,15.43
2019-04-05T07:07:37.675Z,16.65
2019-04-05T07:10:06.821Z,16.80
2019-04-05T07:12:35.754Z,16.61
2019-04-05T07:15:05.254Z,16.21
2019-04-05T07:17:34.186Z,16.32
2019-04-05T07:20:03.156Z,16.36
2019-04-05T07:22:38.856Z,16.34
2019-04-05T07:25:00.962Z,17.24
2019-04-05T07:27:29.852Z,17.90
2019-04-05T07:29:58.764Z,16.91
2019-04-05T07:32:27.668Z,16.85
2019-04-05T07:34:56.587Z,16.76
2019-04-05T07:37:25.486Z,16.88
2019-04-05T07:39:54.410Z,17.13
2019-04-05T07:42:23.315Z,17.52
2019-04-05T07:44:52.240Z,18.41
2019-04-05T07:47:21.128Z,19.13
2019-04-05T07:49:50.095Z,19.92
2019-04-05T07:52:18.979Z,19.53
2019-04-05T07:54:47.886Z,19.23
2019-04-05T07:57:16.827Z,18.97
2019-04-05T07:59:45.768Z,19.08
2019-04-05T08:02:14.619Z,19.63
2019-04-05T08:04:43.498Z,20.43
2019-04-05T08:07:12.751Z,21.31
2019-04-05T08:09:41.644Z,22.29
2019-04-05T08:12:10.629Z,22.94
2019-04-05T08:14:39.889Z,23.09
2019-04-05T08:17:08.973Z,22.93
2019-04-05T08:19:37.912Z,23.27
2019-04-05T08:22:06.875Z,22.55
2019-04-05T08:24:35.755Z,22.90
2019-04-05T08:27:04.784Z,22.79
2019-04-05T08:29:33.690Z,23.04
2019-04-05T08:32:13.897Z,23.19
2019-04-05T08:34:31.502Z,23.09
2019-04-05T08:37:00.395Z,22.54
2019-04-05T08:39:29.326Z,22.22
2019-04-05T08:41:58.345Z,21.75
2019-04-05T08:44:27.234Z,21.88
2019-04-05T08:46:56.175Z,21.99
2019-04-05T08:49:25.099Z,22.56
2019-04-05T08:51:54.016Z,22.53
2019-04-05T08:54:32.342Z,24.18
2019-04-05T08:56:51.844Z,24.73
2019-04-05T08:59:20.773Z,25.44
2019-04-05T09:01:49.663Z,25.92
2019-04-05T09:04:18.590Z,26.20
2019-04-05T09:06:47.496Z,26.37
2019-04-05T09:09:16.383Z,27.31
2019-04-05T09:11:45.297Z,27.60
2019-04-05T09:14:14.212Z,27.97
2019-04-05T09:16:43.220Z,28.35
2019-04-05T09:19:23.102Z,28.38
2019-04-05T09:21:40.962Z,28.02
2019-04-05T09:24:09.899Z,27.24
2019-04-05T09:26:38.802Z,27.62
2019-04-05T09:29:09.471Z,27.91
2019-04-05T09:31:36.920Z,28.30
2019-04-05T09:34:05.958Z,27.76
2019-04-05T09:36:34.815Z,28.14
2019-04-05T09:39:03.810Z,28.75
2019-04-05T09:41:32.726Z,28.49
2019-04-05T09:44:01.636Z,28.31
2019-04-05T09:46:30.571Z,29.38
2019-04-05T09:48:59.515Z,29.82
2019-04-05T09:51:28.435Z,29.39
2019-04-05T09:53:57.335Z,28.45
2019-04-05T09:56:26.292Z,28.23
2019-04-05T09:58:55.187Z,28.11
2019-04-05T10:01:24.128Z,28.58
2019-04-05T10:03:53.056Z,28.34
2019-04-05T10:06:21.942Z,28.56
2019-04-05T10:08:50.875Z,28.20
2019-04-05T10:11:19.789Z,27.54
2019-04-05T10:13:48.684Z,28.08
2019-04-05T10:16:17.570Z,28.69
2019-04-05T10:18:46.554Z,28.33
2019-04-05T10:21:15.417Z,26.34
2019-04-05T10:23:44.321Z,24.80
2019-04-05T10:26:13.237Z,25.12
2019-04-05T10:28:42.131Z,26.25
2019-04-05T10:31:11.042Z,26.57
2019-04-05T10:33:39.928Z,26.23
2019-04-05T10:36:09.011Z,27.45
2019-04-05T10:38:37.911Z,26.83
2019-04-05T10:41:06.994Z,27.64
2019-04-05T10:43:35.899Z,26.51
2019-04-05T10:46:04.876Z,24.60
2019-04-05T10:48:35.395Z,24.05
2019-04-05T10:51:02.711Z,23.30
2019-04-05T10:53:31.626Z,22.96
2019-04-05T10:56:00.532Z,22.38
2019-04-05T10:58:29.441Z,21.86
2019-04-05T11:00:58.344Z,21.38
2019-04-05T11:03:27.230Z,20.85
2019-04-05T11:05:56.151Z,20.14
2019-04-05T11:08:25.020Z,19.31
2019-04-05T11:10:53.891Z,18.93
2019-04-05T11:13:22.796Z,19.36
2019-04-05T11:15:51.692Z,19.27
2019-04-05T11:18:20.618Z,19.35
2019-04-05T11:20:49.840Z,18.94
2019-04-05T11:23:21.181Z,18.57
2019-04-05T11:25:47.339Z,18.49
2019-04-05T11:28:16.233Z,18.53
2019-04-05T11:30:45.792Z,18.27
2019-04-05T11:33:14.735Z,17.74
2019-04-05T11:35:43.751Z,17.49
2019-04-05T11:38:14.116Z,17.59
2019-04-05T11:40:43.004Z,17.61
2019-04-05T11:43:11.946Z,17.54
2019-04-05T11:45:40.837Z,17.55
2019-04-05T11:48:09.810Z,17.65
2019-04-05T11:50:38.688Z,17.84
2019-04-05T11:53:07.697Z,17.80
2019-04-05T11:55:36.596Z,17.51
2019-04-05T11:58:05.503Z,17.21
2019-04-05T12:00:48.099Z,17.27
2019-04-05T12:03:17.096Z,17.36
2019-04-05T12:05:45.967Z,16.99
2019-04-05T12:08:14.929Z,16.94
2019-04-05T12:10:43.862Z,16.78
2019-04-05T12:13:12.762Z,16.66
2019-04-05T12:15:41.702Z,16.24
2019-04-05T12:18:10.671Z,16.21
2019-04-05T12:20:49.182Z,15.99
2019-04-05T12:23:08.671Z,15.69
2019-04-05T12:25:37.588Z,15.35
2019-04-05T12:28:10.310Z,15.22
2019-04-05T12:30:35.453Z,15.19
2019-04-05T12:33:14.031Z,14.96
2019-04-05T12:35:33.341Z,15.00
2019-04-05T12:38:06.746Z,15.04
2019-04-05T12:40:33.391Z,15.03
2019-04-05T12:43:03.438Z,14.76
2019-04-05T12:45:33.682Z,14.71
2019-04-05T12:48:03.783Z,14.68
2019-04-05T12:50:33.699Z,14.75
2019-04-05T12:53:02.535Z,14.81
2019-04-05T12:55:31.456Z,14.94
2019-04-05T12:58:00.359Z,14.92
2019-04-05T13:00:29.296Z,14.95
2019-04-05T13:02:58.159Z,15.07
2019-04-05T13:05:27.044Z,15.10
2019-04-05T13:07:55.956Z,15.19
2019-04-05T13:10:26.013Z,15.17
2019-04-05T13:12:56.772Z,14.88
2019-04-05T13:15:22.719Z,14.94
2019-04-05T13:17:51.635Z,14.95
2019-04-05T13:20:20.538Z,14.85
2019-04-05T13:22:49.451Z,14.98
2019-04-05T13:25:18.342Z,14.94
2019-04-05T13:27:47.260Z,14.98
2019-04-05T13:30:18.376Z,14.96
2019-04-05T13:32:45.059Z,14.96
2019-04-05T13:35:16.704Z,15.06
2019-04-05T13:37:42.917Z,15.18
2019-04-05T13:40:11.746Z,15.16
2019-04-05T13:42:40.881Z,15.24
2019-04-05T13:45:09.733Z,15.24
2019-04-05T13:47:39.161Z,15.16
2019-04-05T13:50:11.020Z,15.25
2019-04-05T13:52:36.670Z,15.34
2019-04-05T13:55:05.743Z,15.34
2019-04-05T13:57:34.695Z,15.18
2019-04-05T14:00:03.721Z,15.21
2019-04-05T14:02:32.584Z,15.23
2019-04-05T14:05:01.507Z,15.31
2019-04-05T14:07:30.401Z,15.34
2019-04-05T14:09:59.383Z,15.53
2019-04-05T14:12:31.099Z,15.51
2019-04-05T14:14:57.244Z,15.48
2019-04-05T14:17:26.167Z,15.45
2019-04-05T14:19:55.095Z,15.51
2019-04-05T14:22:23.994Z,15.58
2019-04-05T14:24:56.562Z,15.50
2019-04-05T14:27:21.845Z,15.45
2019-04-05T14:29:51.149Z,15.45
2019-04-05T14:32:21.736Z,15.29
2019-04-05T14:34:48.623Z,15.20
2019-04-05T14:37:21.402Z,15.21
2019-04-05T14:39:46.434Z,15.23
2019-04-05T14:42:15.691Z,15.20
2019-04-05T14:44:44.255Z,15.23
2019-04-05T14:47:13.144Z,15.30
2019-04-05T14:49:42.063Z,15.26
2019-04-05T14:52:10.978Z,15.26
2019-04-05T14:54:39.902Z,15.23
2019-04-05T14:57:08.985Z,15.12
2019-04-05T14:59:37.890Z,15.10
2019-04-05T15:02:07.017Z,15.18
2019-04-05T15:04:35.850Z,15.16
2019-04-05T15:07:04.831Z,15.20
2019-04-05T15:09:33.747Z,15.30
2019-04-05T15:12:02.695Z,15.37
2019-04-05T15:14:31.546Z,15.48
2019-04-05T15:17:00.456Z,15.54
2019-04-05T15:19:29.399Z,15.59
2019-04-05T15:22:05.631Z,15.54
2019-04-05T15:24:27.231Z,15.33
2019-04-05T15:26:56.152Z,15.10
2019-04-05T15:29:26.216Z,15.09
2019-04-05T15:31:55.476Z,15.05
2019-04-05T15:34:22.928Z,14.95
2019-04-05T15:36:52.339Z,14.89
2019-04-05T15:39:21.216Z,14.87
2019-04-05T15:41:50.197Z,14.91
2019-04-05T15:44:19.089Z,14.92
2019-04-05T15:46:47.983Z,15.00
2019-04-05T15:49:16.914Z,14.94
2019-04-05T15:51:45.899Z,14.91
2019-04-05T15:54:14.756Z,14.67
2019-04-05T15:56:43.673Z,14.63
2019-04-05T15:59:12.555Z,14.62
2019-04-05T16:01:41.492Z,14.64
2019-04-05T16:04:10.460Z,14.60
2019-04-05T16:06:39.353Z,14.55
2019-04-05T16:09:08.500Z,14.47
2019-04-05T16:11:37.400Z,14.29
2019-04-05T16:14:06.484Z,14.10
2019-04-05T16:16:35.379Z,13.91
2019-04-05T16:19:04.397Z,13.68
2019-04-05T16:21:33.326Z,13.59
2019-04-05T16:24:02.259Z,13.47
2019-04-05T16:26:31.184Z,13.30
2019-04-05T16:29:00.062Z,13.32
2019-04-05T16:31:28.963Z,13.24
2019-04-05T16:33:57.916Z,13.15
2019-04-05T16:36:26.823Z,13.15
2019-04-05T16:38:55.725Z,13.04
2019-04-05T16:41:24.660Z,12.97
2019-04-05T16:43:53.608Z,12.92
2019-04-05T16:46:22.566Z,12.96
2019-04-05T16:48:51.435Z,12.94
2019-04-05T16:51:20.370Z,12.88
2019-04-05T16:54:02.379Z,12.79
2019-04-05T16:56:31.345Z,12.78
2019-04-05T16:59:00.278Z,12.74
2019-04-05T17:01:29.173Z,12.74
2019-04-05T17:03:58.144Z,12.80
2019-04-05T17:06:27.113Z,12.77
2019-04-05T17:08:56.038Z,12.76
2019-04-05T17:11:24.924Z,12.50
2019-04-05T17:13:53.846Z,12.57
2019-04-05T17:16:22.806Z,12.58
2019-04-05T17:18:51.849Z,12.54
2019-04-05T17:21:23.228Z,12.55
2019-04-05T17:23:52.037Z,12.51
2019-04-05T17:26:20.961Z,12.44
2019-04-05T17:28:49.851Z,12.34
2019-04-05T17:31:18.780Z,12.30
2019-04-05T17:33:47.827Z,12.31
2019-04-05T17:36:16.848Z,12.31
2019-04-05T17:38:45.840Z,12.32
2019-04-05T17:41:14.762Z,12.32
2019-04-05T17:43:43.725Z,12.46
2019-04-05T17:46:12.696Z,12.51
2019-04-05T17:48:41.636Z,12.56
2019-04-05T17:51:10.750Z,12.31
2019-04-05T17:53:39.712Z,12.24
2019-04-05T17:56:08.740Z,12.14
2019-04-05T17:58:37.737Z,12.09
2019-04-05T18:01:06.754Z,12.10
2019-04-05T18:03:35.670Z,12.17
2019-04-05T18:06:04.761Z,12.15
2019-04-05T18:08:33.668Z,12.15
2019-04-05T18:11:03.199Z,12.12
2019-04-05T18:13:32.144Z,12.14
2019-04-05T18:16:01.077Z,12.25
2019-04-05T18:18:30.000Z,12.11
2019-04-05T18:20:58.915Z,12.04
2019-04-05T18:23:27.832Z,12.00
2019-04-05T18:25:56.819Z,11.98
2019-04-05T18:28:25.704Z,11.82
2019-04-05T18:30:54.641Z,11.75
2019-04-05T18:33:23.583Z,11.76
2019-04-05T18:35:52.502Z,11.76
2019-04-05T18:38:21.443Z,11.90
2019-04-05T18:40:50.355Z,11.72
2019-04-05T18:43:19.285Z,11.70
2019-04-05T18:45:48.202Z,11.72
2019-04-05T18:48:17.117Z,11.73
2019-04-05T18:50:48.413Z,11.73
2019-04-05T18:53:14.964Z,11.68
2019-04-05T18:55:43.865Z,11.65
2019-04-05T18:58:12.794Z,11.65
2019-04-05T19:00:41.712Z,11.68
2019-04-05T19:03:10.653Z,11.67
2019-04-05T19:05:39.626Z,11.60
2019-04-05T19:08:08.617Z,11.52
2019-04-05T19:10:37.667Z,11.43
2019-04-05T19:13:06.533Z,11.43
2019-04-05T19:15:35.435Z,11.48
2019-04-05T19:18:04.381Z,11.46
2019-04-05T19:20:33.365Z,11.48
2019-04-05T19:23:02.320Z,11.51
2019-04-05T19:25:31.233Z,11.51
2019-04-05T19:28:00.146Z,11.45
2019-04-05T19:50:20.744Z,11.24
2019-04-05T19:52:49.678Z,11.21
2019-04-05T19:55:18.674Z,11.24
2019-04-05T19:57:47.611Z,11.45
2019-04-05T20:00:16.566Z,11.34
2019-04-05T20:02:45.497Z,11.27
2019-04-05T20:05:14.414Z,11.57
2019-04-05T20:07:43.349Z,11.39
2019-04-05T20:10:12.284Z,11.28
2019-04-05T20:12:41.210Z,11.28
2019-04-05T20:15:10.129Z,11.30
2019-04-05T20:17:39.436Z,11.49
2019-04-05T20:20:08.463Z,11.32
2019-04-05T20:22:37.530Z,11.23
2019-04-05T20:25:06.489Z,11.27
2019-04-05T20:27:35.375Z,11.22
2019-04-05T20:30:05.329Z,11.30
2019-04-05T20:32:34.232Z,11.34
2019-04-05T20:35:03.226Z,11.35
2019-04-05T20:37:32.129Z,11.34
2019-04-05T20:40:01.063Z,11.31
2019-04-05T20:42:30.057Z,11.34
2019-04-05T20:44:58.952Z,11.35
2019-04-05T20:47:27.873Z,11.32
2019-04-05T20:49:56.775Z,11.28
2019-04-05T20:52:25.728Z,11.20
2019-04-05T20:54:54.648Z,11.12
2019-04-05T20:57:23.625Z,11.30
2019-04-05T20:59:52.484Z,11.15
2019-04-05T21:02:21.377Z,11.15
2019-04-05T21:04:50.283Z,11.32
2019-04-05T21:07:19.197Z,11.15
2019-04-05T21:09:48.310Z,11.08
2019-04-05T21:12:17.131Z,11.00
2019-04-05T21:14:46.072Z,10.99
2019-04-05T21:17:14.973Z,11.03
2019-04-05T21:19:43.911Z,11.02
2019-04-05T21:22:12.904Z,11.03
2019-04-05T21:24:41.836Z,11.00
2019-04-05T21:27:12.688Z,10.99
2019-04-05T21:29:39.748Z,10.91
2019-04-05T21:32:08.740Z,10.89
2019-04-05T21:34:37.702Z,10.82
2019-04-05T21:37:06.693Z,10.84
2019-04-05T21:39:35.735Z,10.82
2019-04-05T21:42:04.788Z,10.81
2019-04-05T21:44:33.718Z,10.87
2019-04-05T21:47:02.682Z,11.08
2019-04-05T21:49:31.645Z,10.94
2019-04-05T21:52:00.647Z,11.00
2019-04-05T21:54:29.640Z,11.09
2019-04-05T21:56:58.626Z,10.85
2019-04-05T21:59:27.587Z,10.85
2019-04-05T22:01:56.592Z,10.84
2019-04-05T22:04:25.622Z,10.83
2019-04-05T22:06:54.564Z,10.75
2019-04-05T22:09:23.521Z,10.95
2019-04-05T22:11:52.489Z,10.75
2019-04-05T22:14:21.499Z,10.78
2019-04-05T22:16:50.455Z,10.77
2019-04-05T22:19:19.926Z,10.73
2019-04-05T22:21:49.610Z,10.69
2019-04-05T22:24:18.542Z,10.69
2019-04-05T22:26:47.614Z,10.68
2019-04-05T22:29:16.621Z,10.71
2019-04-05T22:31:45.620Z,10.66
2019-04-05T22:34:15.738Z,10.63
2019-04-05T22:36:44.695Z,10.59
2019-04-05T22:39:13.726Z,10.66
2019-04-05T22:41:42.715Z,10.60
2019-04-05T22:44:11.689Z,10.66
2019-04-05T22:46:40.745Z,10.62
2019-04-05T22:49:09.780Z,10.73
2019-04-05T22:51:38.813Z,10.60
2019-04-05T22:54:07.826Z,10.63
2019-04-05T22:56:36.790Z,10.51
2019-04-05T22:59:05.814Z,10.78
2019-04-05T23:01:34.809Z,10.64
2019-04-05T23:04:03.813Z,10.90
2019-04-05T23:06:32.806Z,10.72
2019-04-05T23:09:01.819Z,10.96
2019-04-05T23:11:30.774Z,10.60
2019-04-05T23:13:59.731Z,10.52
2019-04-05T23:16:28.752Z,10.56
2019-04-05T23:18:57.722Z,10.55
2019-04-05T23:21:26.736Z,10.63
2019-04-05T23:23:55.742Z,10.63
2019-04-05T23:26:24.716Z,10.62
2019-04-05T23:28:53.779Z,10.97
2019-04-05T23:31:22.773Z,10.67
2019-04-05T23:33:51.755Z,10.66
2019-04-05T23:36:20.846Z,10.65
2019-04-05T23:38:49.740Z,11.02
2019-04-05T23:41:18.751Z,10.78
2019-04-05T23:43:47.727Z,10.75
2019-04-05T23:46:16.714Z,10.73
2019-04-05T23:48:45.692Z,10.71
2019-04-05T23:51:14.695Z,10.73
2019-04-05T23:53:43.672Z,10.72
2019-04-05T23:56:12.800Z,10.71
2019-04-05T23:58:41.812Z,10.73
